CYZY

Mackenzie Airport

Mackenzie, British Columbia, Canada
METAR CYZY 250100Z AUTO 06003KT 9SM OVC095 20/03 A2980 RMK SLP097 DENSITY ALT 3500FT
Observed Flight Rules
May-25 @ 01:00 UTC (11 minutes ago) Visual Flight Rules
Wind Visibility Clouds
60° at 3 knots 9 miles
  • Overcast at 9,500' AGL
Temperatures Readings
Current 20°C / 68°F
Dewpoint 3°C / 37°F
Humidity 33%
Altimeter 29.8" Hg
Pressure 1009.7 hPa
Elevation 690
METAR CYZY 250100Z AUTO 06003KT 9SM OVC095 20/03 A2980 RMK SLP097 DENSITY ALT 3500FT
Observed Flight Rules
May-25 @ 01:00 UTC
(11 minutes ago)
VFR
Wind Visibility
60° at 3 knots 9 miles
Clouds
  • Overcast at 9,500' AGL
Temperature Dewpoint
20°C / 68°F 3°C / 37°F
Humidity Altimeter Pressure
33% 29.8" Hg 1009.7 hPa